Time,TemperatureF,DewpointF,PressureIn,WindDirection,WindDirectionDegrees,WindSpeedMPH,WindSpeedGustMPH,Humidity,HourlyPrecipIn,Conditions,Clouds,dailyrainin,SoftwareType,DateUTC
2013-05-20 00:01:00,50.8,45.1,30.06,North,0,0.0,0.0,81,0.00,,,0.00,WUHU216HW,2013-05-20 07:01:00,
2013-05-20 00:06:00,50.8,45.1,30.06,North,0,0.0,0.0,81,0.00,,,0.00,WUHU216HW,2013-05-20 07:06:00,
2013-05-20 00:11:00,50.6,44.6,30.06,North,0,0.0,0.0,80,0.00,,,0.00,WUHU216HW,2013-05-20 07:11:00,
2013-05-20 00:16:00,50.6,44.9,30.07,North,0,0.0,0.0,81,0.00,,,0.00,WUHU216HW,2013-05-20 07:16:00,
2013-05-20 00:21:00,50.4,44.7,30.07,North,0,0.0,0.0,81,0.00,,,0.00,WUHU216HW,2013-05-20 07:21:00,
2013-05-20 00:26:00,50.2,44.6,30.07,North,0,0.0,0.0,81,0.00,,,0.00,WUHU216HW,2013-05-20 07:26:00,
2013-05-20 00:31:00,50.0,44.4,30.07,North,0,0.0,0.0,81,0.00,,,0.00,WUHU216HW,2013-05-20 07:31:00,
2013-05-20 00:36:00,50.0,44.7,30.07,North,0,0.0,0.0,82,0.00,,,0.00,WUHU216HW,2013-05-20 07:36:00,
2013-05-20 00:41:00,50.0,44.4,30.07,North,0,0.0,0.0,81,0.00,,,0.00,WUHU216HW,2013-05-20 07:41:00,
2013-05-20 00:46:00,49.9,44.2,30.07,North,0,0.0,0.0,81,0.00,,,0.00,WUHU216HW,2013-05-20 07:46:00,
2013-05-20 00:51:00,49.7,44.4,30.06,North,0,0.0,0.0,82,0.00,,,0.00,WUHU216HW,2013-05-20 07:51:00,
2013-05-20 00:56:00,49.5,43.8,30.06,North,0,0.0,0.0,81,0.00,,,0.00,WUHU216HW,2013-05-20 07:56:00,
2013-05-20 01:01:00,49.3,43.7,30.07,North,0,0.0,0.0,81,0.00,,,0.00,WUHU216HW,2013-05-20 08:01:00,
2013-05-20 01:06:00,49.3,44.0,30.06,North,0,0.0,0.0,82,0.00,,,0.00,WUHU216HW,2013-05-20 08:06:00,
2013-05-20 01:11:00,49.1,43.8,30.07,North,0,0.0,0.0,82,0.00,,,0.00,WUHU216HW,2013-05-20 08:11:00,
2013-05-20 01:16:00,49.0,43.7,30.07,North,0,0.0,0.0,82,0.00,,,0.00,WUHU216HW,2013-05-20 08:16:00,
2013-05-20 01:21:00,48.8,43.5,30.06,North,0,0.0,0.0,82,0.00,,,0.00,WUHU216HW,2013-05-20 08:21:00,
2013-05-20 01:26:00,48.6,43.3,30.06,North,0,0.0,0.0,82,0.00,,,0.00,WUHU216HW,2013-05-20 08:26:00,
2013-05-20 01:31:00,48.2,42.7,30.06,North,0,0.0,0.0,81,0.00,,,0.00,WUHU216HW,2013-05-20 08:31:00,
2013-05-20 01:36:00,47.9,42.3,30.06,North,0,0.0,0.0,81,0.00,,,0.00,WUHU216HW,2013-05-20 08:36:00,
2013-05-20 01:41:00,47.9,42.3,30.06,North,0,0.0,0.0,81,0.00,,,0.00,WUHU216HW,2013-05-20 08:41:00,
2013-05-20 01:46:00,47.9,42.3,30.06,North,0,0.0,0.0,81,0.00,,,0.00,WUHU216HW,2013-05-20 08:46:00,
2013-05-20 01:51:00,47.7,42.1,30.06,North,0,0.0,0.0,81,0.00,,,0.00,WUHU216HW,2013-05-20 08:51:00,
2013-05-20 01:56:00,47.3,42.1,30.07,North,0,0.0,0.0,82,0.00,,,0.00,WUHU216HW,2013-05-20 08:56:00,
2013-05-20 02:01:00,47.2,41.9,30.06,North,0,0.0,0.0,82,0.00,,,0.00,WUHU216HW,2013-05-20 09:01:00,
2013-05-20 02:06:00,47.2,41.9,30.07,North,0,0.0,0.0,82,0.00,,,0.00,WUHU216HW,2013-05-20 09:06:00,
2013-05-20 02:11:00,47.2,41.9,30.06,North,0,0.0,0.0,82,0.00,,,0.00,WUHU216HW,2013-05-20 09:11:00,
2013-05-20 02:16:00,47.0,41.8,30.07,North,0,0.0,0.0,82,0.00,,,0.00,WUHU216HW,2013-05-20 09:16:00,
2013-05-20 02:21:00,46.8,41.6,30.06,North,0,0.0,0.0,82,0.00,,,0.00,WUHU216HW,2013-05-20 09:21:00,
2013-05-20 02:26:00,46.6,41.5,30.06,North,0,0.0,0.0,82,0.00,,,0.00,WUHU216HW,2013-05-20 09:26:00,
2013-05-20 02:31:00,46.4,41.6,30.06,North,0,0.0,0.0,83,0.00,,,0.00,WUHU216HW,2013-05-20 09:31:00,
2013-05-20 02:36:00,46.4,41.6,30.06,North,0,0.0,0.0,83,0.00,,,0.00,WUHU216HW,2013-05-20 09:36:00,
2013-05-20 02:41:00,46.4,41.6,30.06,North,0,0.0,0.0,83,0.00,,,0.00,WUHU216HW,2013-05-20 09:41:00,
2013-05-20 02:46:00,46.3,41.4,30.06,North,0,0.0,0.0,83,0.00,,,0.00,WUHU216HW,2013-05-20 09:46:00,
2013-05-20 02:51:00,46.1,41.2,30.06,North,0,0.0,0.0,83,0.00,,,0.00,WUHU216HW,2013-05-20 09:51:00,
2013-05-20 02:56:00,45.7,40.9,30.06,North,0,0.0,0.0,83,0.00,,,0.00,WUHU216HW,2013-05-20 09:56:00,
2013-05-20 03:01:00,45.7,40.9,30.06,North,0,0.0,0.0,83,0.00,,,0.00,WUHU216HW,2013-05-20 10:01:00,
2013-05-20 03:06:00,45.5,40.7,30.06,North,0,0.0,0.0,83,0.00,,,0.00,WUHU216HW,2013-05-20 10:06:00,
2013-05-20 03:11:00,45.5,40.7,30.06,North,0,0.0,0.0,83,0.00,,,0.00,WUHU216HW,2013-05-20 10:11:00,
2013-05-20 03:16:00,45.4,40.5,30.06,North,0,0.0,0.0,83,0.00,,,0.00,WUHU216HW,2013-05-20 10:16:00,
2013-05-20 03:21:00,45.2,40.3,30.06,North,0,0.0,0.0,83,0.00,,,0.00,WUHU216HW,2013-05-20 10:21:00,
2013-05-20 03:26:00,45.0,40.8,30.06,North,0,0.0,0.0,85,0.00,,,0.00,WUHU216HW,2013-05-20 10:26:00,
2013-05-20 03:31:00,45.0,40.8,30.05,North,0,0.0,0.0,85,0.00,,,0.00,WUHU216HW,2013-05-20 10:31:00,
2013-05-20 03:36:00,45.0,40.8,30.05,North,0,0.0,0.0,85,0.00,,,0.00,WUHU216HW,2013-05-20 10:36:00,
2013-05-20 03:41:00,45.0,40.8,30.05,North,0,0.0,0.0,85,0.00,,,0.00,WUHU216HW,2013-05-20 10:41:00,
2013-05-20 03:46:00,44.8,40.3,30.05,North,0,0.0,0.0,84,0.00,,,0.00,WUHU216HW,2013-05-20 10:46:00,
2013-05-20 03:51:00,44.6,40.2,30.05,North,0,0.0,0.0,84,0.00,,,0.00,WUHU216HW,2013-05-20 10:51:00,
2013-05-20 03:56:00,44.6,40.2,30.05,North,0,0.0,0.0,84,0.00,,,0.00,WUHU216HW,2013-05-20 10:56:00,
2013-05-20 04:01:00,44.5,40.2,30.05,North,0,0.0,0.0,85,0.00,,,0.00,WUHU216HW,2013-05-20 11:01:00,
2013-05-20 04:06:00,44.3,40.1,30.04,North,0,0.0,0.0,85,0.00,,,0.00,WUHU216HW,2013-05-20 11:06:00,
2013-05-20 04:11:00,44.3,40.1,30.04,North,0,0.0,0.0,85,0.00,,,0.00,WUHU216HW,2013-05-20 11:11:00,
2013-05-20 04:16:00,44.3,40.1,30.04,North,0,0.0,0.0,85,0.00,,,0.00,WUHU216HW,2013-05-20 11:16:00,
2013-05-20 04:21:00,44.3,40.1,30.04,North,0,0.0,0.0,85,0.00,,,0.00,WUHU216HW,2013-05-20 11:21:00,
2013-05-20 04:26:00,44.1,39.9,30.04,North,0,0.0,0.0,85,0.00,,,0.00,WUHU216HW,2013-05-20 11:26:00,
2013-05-20 04:31:00,44.1,39.9,30.04,North,0,0.0,0.0,85,0.00,,,0.00,WUHU216HW,2013-05-20 11:31:00,
2013-05-20 04:36:00,43.9,39.7,30.04,North,0,0.0,0.0,85,0.00,,,0.00,WUHU216HW,2013-05-20 11:36:00,
2013-05-20 04:41:00,43.9,39.7,30.03,North,0,0.0,0.0,85,0.00,,,0.00,WUHU216HW,2013-05-20 11:41:00,
2013-05-20 04:46:00,43.7,39.5,30.03,North,0,0.0,0.0,85,0.00,,,0.00,WUHU216HW,2013-05-20 11:46:00,
2013-05-20 04:51:00,43.6,39.3,30.03,North,0,0.0,0.0,85,0.00,,,0.00,WUHU216HW,2013-05-20 11:51:00,
2013-05-20 04:56:00,43.6,39.6,30.03,North,0,0.0,0.0,86,0.00,,,0.00,WUHU216HW,2013-05-20 11:56:00,
2013-05-20 05:01:00,43.6,39.6,30.03,North,0,0.0,0.0,86,0.00,,,0.00,WUHU216HW,2013-05-20 12:01:00,
2013-05-20 05:06:00,43.6,39.6,30.02,North,0,0.0,0.0,86,0.00,,,0.00,WUHU216HW,2013-05-20 12:06:00,
2013-05-20 05:11:00,43.6,39.6,30.02,North,0,0.0,0.0,86,0.00,,,0.00,WUHU216HW,2013-05-20 12:11:00,
2013-05-20 05:16:00,43.6,39.6,30.02,North,0,0.0,0.0,86,0.00,,,0.00,WUHU216HW,2013-05-20 12:16:00,
2013-05-20 05:21:00,43.6,39.6,30.02,North,0,0.0,0.0,86,0.00,,,0.00,WUHU216HW,2013-05-20 12:21:00,
2013-05-20 05:26:00,43.6,39.6,30.02,North,0,0.0,0.0,86,0.00,,,0.00,WUHU216HW,2013-05-20 12:26:00,
2013-05-20 05:31:00,43.6,39.6,30.02,North,0,0.0,0.0,86,0.00,,,0.00,WUHU216HW,2013-05-20 12:31:00,
2013-05-20 05:36:00,43.6,39.6,30.02,North,0,0.0,0.0,86,0.00,,,0.00,WUHU216HW,2013-05-20 12:36:00,
2013-05-20 05:41:00,43.6,39.6,30.02,North,0,0.0,0.0,86,0.00,,,0.00,WUHU216HW,2013-05-20 12:41:00,
2013-05-20 05:46:00,43.6,39.6,30.02,North,0,0.0,0.0,86,0.00,,,0.00,WUHU216HW,2013-05-20 12:46:00,
2013-05-20 05:51:00,43.7,39.8,30.02,North,0,0.0,0.0,86,0.00,,,0.00,WUHU216HW,2013-05-20 12:51:00,
2013-05-20 05:56:00,44.1,40.5,30.01,North,0,0.0,0.0,87,0.00,,,0.00,WUHU216HW,2013-05-20 12:56:00,
2013-05-20 06:01:00,44.6,41.1,30.01,North,0,0.0,0.0,87,0.00,,,0.00,WUHU216HW,2013-05-20 13:01:00,
2013-05-20 06:06:00,45.4,41.8,30.01,North,0,0.0,0.0,87,0.00,,,0.00,WUHU216HW,2013-05-20 13:06:00,
2013-05-20 06:11:00,45.5,41.6,30.01,North,0,0.0,0.0,86,0.00,,,0.00,WUHU216HW,2013-05-20 13:11:00,
2013-05-20 06:16:00,45.2,41.6,30.01,North,0,0.0,0.0,87,0.00,,,0.00,WUHU216HW,2013-05-20 13:16:00,
2013-05-20 06:21:00,45.0,41.4,30.01,North,0,0.0,0.0,87,0.00,,,0.00,WUHU216HW,2013-05-20 13:21:00,
2013-05-20 06:26:00,44.8,41.2,30.01,North,0,0.0,0.0,87,0.00,,,0.00,WUHU216HW,2013-05-20 13:26:00,
2013-05-20 06:31:00,44.6,41.3,30.01,North,0,0.0,0.0,88,0.00,,,0.00,WUHU216HW,2013-05-20 13:31:00,
2013-05-20 06:36:00,44.6,41.3,30.01,North,0,0.0,0.0,88,0.00,,,0.00,WUHU216HW,2013-05-20 13:36:00,
2013-05-20 06:41:00,44.8,41.5,30.00,North,0,0.0,0.0,88,0.00,,,0.00,WUHU216HW,2013-05-20 13:41:00,
2013-05-20 06:46:00,44.8,41.5,30.00,North,0,0.0,0.0,88,0.00,,,0.00,WUHU216HW,2013-05-20 13:46:00,
2013-05-20 06:52:00,45.0,42.0,30.00,North,0,0.0,0.0,89,0.00,,,0.00,WUHU216HW,2013-05-20 13:52:00,
2013-05-20 06:57:00,45.0,42.0,30.00,North,0,0.0,0.0,89,0.00,,,0.00,WUHU216HW,2013-05-20 13:57:00,
2013-05-20 07:02:00,45.2,42.2,30.00,North,0,0.0,0.0,89,0.00,,,0.00,WUHU216HW,2013-05-20 14:02:00,
2013-05-20 07:07:00,45.4,42.4,30.00,North,0,0.0,0.0,89,0.00,,,0.00,WUHU216HW,2013-05-20 14:07:00,
2013-05-20 07:12:00,45.5,42.8,30.00,North,0,0.0,0.0,90,0.00,,,0.00,WUHU216HW,2013-05-20 14:12:00,
2013-05-20 07:17:00,45.4,42.7,30.00,North,0,0.0,0.0,90,0.00,,,0.00,WUHU216HW,2013-05-20 14:17:00,
2013-05-20 07:22:00,45.5,42.8,29.99,North,0,0.0,0.0,90,0.00,,,0.00,WUHU216HW,2013-05-20 14:22:00,
2013-05-20 07:27:00,46.1,43.4,29.99,North,0,0.0,0.0,90,0.00,,,0.00,WUHU216HW,2013-05-20 14:27:00,
2013-05-20 07:32:00,46.4,43.7,29.99,North,0,0.0,0.0,90,0.00,,,0.00,WUHU216HW,2013-05-20 14:32:00,
2013-05-20 07:37:00,47.0,44.3,29.99,North,0,0.0,0.0,90,0.00,,,0.00,WUHU216HW,2013-05-20 14:37:00,
2013-05-20 07:42:00,47.2,44.2,29.99,North,0,0.0,0.0,89,0.00,,,0.00,WUHU216HW,2013-05-20 14:42:00,
2013-05-20 07:47:00,47.3,44.4,29.99,North,0,0.0,0.0,89,0.00,,,0.00,WUHU216HW,2013-05-20 14:47:00,
2013-05-20 07:52:00,47.5,44.5,29.99,North,0,0.0,0.0,89,0.00,,,0.00,WUHU216HW,2013-05-20 14:52:00,
2013-05-20 07:57:00,48.1,44.7,29.98,North,0,0.0,0.0,88,0.00,,,0.00,WUHU216HW,2013-05-20 14:57:00,
2013-05-20 08:02:00,48.6,45.2,29.98,North,0,0.0,0.0,88,0.00,,,0.00,WUHU216HW,2013-05-20 15:02:00,
2013-05-20 08:07:00,49.0,45.5,29.98,North,0,0.0,0.0,88,0.00,,,0.00,WUHU216HW,2013-05-20 15:07:00,
2013-05-20 08:12:00,49.5,45.7,29.98,North,0,0.0,0.0,87,0.00,,,0.00,WUHU216HW,2013-05-20 15:12:00,
2013-05-20 08:17:00,50.2,46.5,29.98,North,0,0.0,0.0,87,0.00,,,0.00,WUHU216HW,2013-05-20 15:17:00,
2013-05-20 08:22:00,50.9,47.2,29.98,North,0,0.0,0.0,87,0.00,,,0.00,WUHU216HW,2013-05-20 15:22:00,
2013-05-20 08:27:00,51.8,47.7,29.98,North,0,0.0,0.0,86,0.00,,,0.00,WUHU216HW,2013-05-20 15:27:00,
2013-05-20 08:32:00,52.6,48.4,29.98,North,0,0.0,0.0,86,0.00,,,0.00,WUHU216HW,2013-05-20 15:32:00,
2013-05-20 08:37:00,53.5,48.8,29.98,North,0,0.0,0.0,84,0.00,,,0.00,WUHU216HW,2013-05-20 15:37:00,
2013-05-20 08:42:00,53.8,48.8,29.97,North,0,0.0,0.0,83,0.00,,,0.00,WUHU216HW,2013-05-20 15:42:00,
2013-05-20 08:47:00,54.2,49.2,29.97,North,0,0.0,0.0,83,0.00,,,0.00,WUHU216HW,2013-05-20 15:47:00,
2013-05-20 08:52:00,54.4,48.7,29.97,North,0,0.0,0.0,81,0.00,,,0.00,WUHU216HW,2013-05-20 15:52:00,
2013-05-20 08:57:00,54.2,48.5,29.97,North,0,0.0,0.0,81,0.00,,,0.00,WUHU216HW,2013-05-20 15:57:00,
2013-05-20 09:02:00,54.2,48.5,29.97,North,0,0.0,0.0,81,0.00,,,0.00,WUHU216HW,2013-05-20 16:02:00,
2013-05-20 09:07:00,54.2,48.5,29.97,North,0,0.0,0.0,81,0.00,,,0.00,WUHU216HW,2013-05-20 16:07:00,
2013-05-20 09:12:00,54.4,48.7,29.97,North,0,0.0,0.0,81,0.00,,,0.00,WUHU216HW,2013-05-20 16:12:00,
2013-05-20 09:17:00,54.4,48.3,29.97,North,0,0.0,0.0,80,0.00,,,0.00,WUHU216HW,2013-05-20 16:17:00,
2013-05-20 09:22:00,54.7,48.7,29.96,North,0,0.0,0.0,80,0.00,,,0.00,WUHU216HW,2013-05-20 16:22:00,
2013-05-20 09:27:00,55.3,49.5,29.96,North,0,0.0,0.0,81,0.00,,,0.00,WUHU216HW,2013-05-20 16:27:00,
2013-05-20 09:32:00,56.0,49.9,29.96,North,0,0.0,0.0,80,0.00,,,0.00,WUHU216HW,2013-05-20 16:32:00,
2013-05-20 09:37:00,56.3,49.9,29.96,North,0,0.0,0.0,79,0.00,,,0.00,WUHU216HW,2013-05-20 16:37:00,
2013-05-20 09:42:00,56.2,49.3,29.96,North,0,0.0,0.0,78,0.00,,,0.00,WUHU216HW,2013-05-20 16:42:00,
2013-05-20 09:47:00,56.3,49.5,29.96,North,0,0.0,0.0,78,0.00,,,0.00,WUHU216HW,2013-05-20 16:47:00,
2013-05-20 09:52:00,56.7,49.5,29.95,North,0,0.0,0.0,77,0.00,,,0.00,WUHU216HW,2013-05-20 16:52:00,
2013-05-20 09:57:00,57.1,49.9,29.95,North,0,0.0,0.0,77,0.00,,,0.00,WUHU216HW,2013-05-20 16:57:00,
2013-05-20 10:02:00,57.4,50.2,29.95,North,0,0.0,0.0,77,0.00,,,0.00,WUHU216HW,2013-05-20 17:02:00,
2013-05-20 10:07:00,57.8,50.2,29.94,North,0,0.0,0.0,76,0.00,,,0.00,WUHU216HW,2013-05-20 17:07:00,
2013-05-20 10:12:00,58.3,51.5,29.94,North,0,0.0,0.0,78,0.00,,,0.00,WUHU216HW,2013-05-20 17:12:00,
2013-05-20 10:17:00,59.4,51.1,29.94,North,0,0.0,0.0,74,0.00,,,0.00,WUHU216HW,2013-05-20 17:17:00,
2013-05-20 10:22:00,59.0,50.4,29.93,North,0,0.0,0.0,73,0.00,,,0.00,WUHU216HW,2013-05-20 17:22:00,
2013-05-20 10:27:00,58.9,50.2,29.93,North,0,0.0,0.0,73,0.00,,,0.00,WUHU216HW,2013-05-20 17:27:00,
2013-05-20 10:32:00,58.5,50.2,29.93,North,0,0.0,0.0,74,0.00,,,0.00,WUHU216HW,2013-05-20 17:32:00,
2013-05-20 10:37:00,58.9,50.9,29.92,North,0,0.0,0.0,75,0.00,,,0.00,WUHU216HW,2013-05-20 17:37:00,
2013-05-20 10:42:00,59.4,51.1,29.92,North,0,0.0,0.0,74,0.00,,,0.00,WUHU216HW,2013-05-20 17:42:00,
2013-05-20 10:47:00,60.1,51.5,29.92,North,0,0.0,0.0,73,0.00,,,0.00,WUHU216HW,2013-05-20 17:47:00,
2013-05-20 10:52:00,60.1,51.1,29.91,North,0,0.0,0.0,72,0.00,,,0.00,WUHU216HW,2013-05-20 17:52:00,
2013-05-20 10:57:00,60.8,52.2,29.91,North,0,0.0,0.0,73,0.00,,,0.00,WUHU216HW,2013-05-20 17:57:00,
2013-05-20 11:02:00,61.6,51.4,29.91,North,0,0.0,0.0,69,0.00,,,0.00,WUHU216HW,2013-05-20 18:02:00,
2013-05-20 11:07:00,61.9,51.7,29.91,North,0,0.0,0.0,69,0.00,,,0.00,WUHU216HW,2013-05-20 18:07:00,
2013-05-20 11:12:00,61.6,50.9,29.91,North,0,0.0,0.0,68,0.00,,,0.00,WUHU216HW,2013-05-20 18:12:00,
2013-05-20 11:17:00,61.7,51.5,29.91,North,0,0.0,0.0,69,0.00,,,0.00,WUHU216HW,2013-05-20 18:17:00,
2013-05-20 11:22:00,62.3,52.4,29.90,North,0,0.0,0.0,70,0.00,,,0.00,WUHU216HW,2013-05-20 18:22:00,
2013-05-20 11:27:00,62.8,52.5,29.90,North,0,0.0,0.0,69,0.00,,,0.00,WUHU216HW,2013-05-20 18:27:00,
2013-05-20 11:32:00,63.2,53.3,29.89,North,0,0.0,0.0,70,0.00,,,0.00,WUHU216HW,2013-05-20 18:32:00,
2013-05-20 11:37:00,63.5,52.4,29.89,North,0,0.0,0.0,67,0.00,,,0.00,WUHU216HW,2013-05-20 18:37:00,
2013-05-20 11:42:00,63.4,52.7,29.89,North,0,0.0,0.0,68,0.00,,,0.00,WUHU216HW,2013-05-20 18:42:00,
2013-05-20 11:47:00,63.4,52.2,29.89,North,0,0.0,0.0,67,0.00,,,0.00,WUHU216HW,2013-05-20 18:47:00,
2013-05-20 11:52:00,63.2,52.0,29.89,North,0,0.0,0.0,67,0.00,,,0.00,WUHU216HW,2013-05-20 18:52:00,
2013-05-20 11:57:00,63.5,51.9,29.89,North,0,0.0,0.0,66,0.00,,,0.00,WUHU216HW,2013-05-20 18:57:00,
2013-05-20 12:02:00,63.2,52.5,29.89,North,0,0.0,0.0,68,0.00,,,0.00,WUHU216HW,2013-05-20 19:02:00,
2013-05-20 12:07:00,63.7,52.6,29.88,North,0,0.0,0.0,67,0.00,,,0.00,WUHU216HW,2013-05-20 19:07:00,
2013-05-20 12:12:00,63.7,52.6,29.88,North,0,0.0,0.0,67,0.00,,,0.00,WUHU216HW,2013-05-20 19:12:00,
2013-05-20 12:17:00,63.7,52.6,29.88,North,0,0.0,0.0,67,0.00,,,0.00,WUHU216HW,2013-05-20 19:17:00,
2013-05-20 12:22:00,64.3,53.9,29.88,North,0,0.0,0.0,69,0.00,,,0.00,WUHU216HW,2013-05-20 19:22:00,
2013-05-20 12:27:00,64.6,52.6,29.88,North,0,0.0,0.0,65,0.00,,,0.00,WUHU216HW,2013-05-20 19:27:00,
2013-05-20 12:32:00,65.0,52.9,29.88,North,0,0.0,0.0,65,0.00,,,0.00,WUHU216HW,2013-05-20 19:32:00,
2013-05-20 12:37:00,65.2,53.1,29.87,North,0,0.0,0.0,65,0.00,,,0.00,WUHU216HW,2013-05-20 19:37:00,
2013-05-20 12:42:00,65.7,54.0,29.87,North,0,0.0,0.0,66,0.00,,,0.00,WUHU216HW,2013-05-20 19:42:00,
2013-05-20 12:47:00,66.6,54.5,29.86,North,0,0.0,0.0,65,0.00,,,0.00,WUHU216HW,2013-05-20 19:47:00,
2013-05-20 12:52:00,66.6,53.7,29.86,North,0,0.0,0.0,63,0.00,,,0.00,WUHU216HW,2013-05-20 19:52:00,
2013-05-20 12:57:00,66.6,54.5,29.86,North,0,0.0,0.0,65,0.00,,,0.00,WUHU216HW,2013-05-20 19:57:00,
2013-05-20 13:02:00,67.5,54.9,29.85,North,0,0.0,0.0,64,0.00,,,0.00,WUHU216HW,2013-05-20 20:02:00,
2013-05-20 13:07:00,68.6,55.0,29.85,North,0,0.0,0.0,62,0.00,,,0.00,WUHU216HW,2013-05-20 20:07:00,
2013-05-20 13:12:00,69.1,55.5,29.85,North,0,0.0,0.0,62,0.00,,,0.00,WUHU216HW,2013-05-20 20:12:00,
2013-05-20 13:17:00,69.1,54.7,29.85,North,0,0.0,0.0,60,0.00,,,0.00,WUHU216HW,2013-05-20 20:17:00,
2013-05-20 13:22:00,69.1,53.7,29.85,North,0,0.0,0.0,58,0.00,,,0.00,WUHU216HW,2013-05-20 20:22:00,
2013-05-20 13:27:00,69.3,54.9,29.84,North,0,0.0,0.0,60,0.00,,,0.00,WUHU216HW,2013-05-20 20:27:00,
2013-05-20 13:32:00,69.7,54.7,29.84,North,0,0.0,0.0,59,0.00,,,0.00,WUHU216HW,2013-05-20 20:32:00,
2013-05-20 13:37:00,70.0,54.1,29.84,North,0,0.0,0.0,57,0.00,,,0.00,WUHU216HW,2013-05-20 20:37:00,
2013-05-20 13:42:00,70.2,54.7,29.84,North,0,0.0,0.0,58,0.00,,,0.00,WUHU216HW,2013-05-20 20:42:00,
2013-05-20 13:47:00,70.4,53.9,29.83,North,0,0.0,0.0,56,0.00,,,0.00,WUHU216HW,2013-05-20 20:47:00,
2013-05-20 13:52:00,70.6,54.5,29.83,North,0,0.0,0.0,57,0.00,,,0.00,WUHU216HW,2013-05-20 20:52:00,
2013-05-20 13:57:00,70.2,52.2,29.83,North,0,0.0,0.0,53,0.00,,,0.00,WUHU216HW,2013-05-20 20:57:00,
2013-05-20 14:02:00,69.3,51.0,29.83,North,0,0.0,0.0,52,0.00,,,0.00,WUHU216HW,2013-05-20 21:02:00,
2013-05-20 14:07:00,69.3,51.9,29.83,North,0,0.0,0.0,54,0.00,,,0.00,WUHU216HW,2013-05-20 21:07:00,
2013-05-20 14:12:00,69.5,51.6,29.82,North,0,0.0,0.0,53,0.00,,,0.00,WUHU216HW,2013-05-20 21:12:00,
2013-05-20 14:17:00,69.1,51.2,29.82,North,0,0.0,0.0,53,0.00,,,0.00,WUHU216HW,2013-05-20 21:17:00,
2013-05-20 14:22:00,69.3,52.4,29.82,North,0,0.0,0.0,55,0.00,,,0.00,WUHU216HW,2013-05-20 21:22:00,
2013-05-20 14:27:00,69.8,51.9,29.82,North,0,0.0,0.0,53,0.00,,,0.00,WUHU216HW,2013-05-20 21:27:00,
2013-05-20 14:32:00,70.2,52.7,29.82,North,0,0.0,0.0,54,0.00,,,0.00,WUHU216HW,2013-05-20 21:32:00,
2013-05-20 14:37:00,70.7,54.3,29.81,North,0,0.0,0.0,56,0.00,,,0.00,WUHU216HW,2013-05-20 21:37:00,
2013-05-20 14:42:00,71.3,53.7,29.81,North,0,0.0,0.0,54,0.00,,,0.00,WUHU216HW,2013-05-20 21:42:00,
2013-05-20 14:47:00,71.5,52.8,29.81,North,0,0.0,0.0,52,0.00,,,0.00,WUHU216HW,2013-05-20 21:47:00,
2013-05-20 14:52:00,70.7,51.2,29.80,North,0,0.0,0.0,50,0.00,,,0.00,WUHU216HW,2013-05-20 21:52:00,
2013-05-20 14:57:00,70.6,51.0,29.80,North,0,0.0,0.0,50,0.00,,,0.00,WUHU216HW,2013-05-20 21:57:00,
2013-05-20 15:02:00,69.8,51.0,29.80,North,0,0.0,0.0,51,0.00,,,0.00,WUHU216HW,2013-05-20 22:02:00,
2013-05-20 15:07:00,69.5,50.6,29.79,North,0,0.0,0.0,51,0.00,,,0.00,WUHU216HW,2013-05-20 22:07:00,
2013-05-20 15:12:00,69.8,51.9,29.79,North,0,0.0,0.0,53,0.00,,,0.00,WUHU216HW,2013-05-20 22:12:00,
2013-05-20 15:17:00,70.2,52.7,29.79,North,0,0.0,0.0,54,0.00,,,0.00,WUHU216HW,2013-05-20 22:17:00,
2013-05-20 15:22:00,70.2,51.2,29.78,North,0,0.0,0.0,51,0.00,,,0.00,WUHU216HW,2013-05-20 22:22:00,
2013-05-20 15:27:00,69.7,51.8,29.78,North,0,0.0,0.0,53,0.00,,,0.00,WUHU216HW,2013-05-20 22:27:00,
2013-05-20 15:32:00,69.5,51.6,29.78,North,0,0.0,0.0,53,0.00,,,0.00,WUHU216HW,2013-05-20 22:32:00,
2013-05-20 15:37:00,69.7,52.3,29.78,North,0,0.0,0.0,54,0.00,,,0.00,WUHU216HW,2013-05-20 22:37:00,
2013-05-20 15:42:00,69.5,52.1,29.77,North,0,0.0,0.0,54,0.00,,,0.00,WUHU216HW,2013-05-20 22:42:00,
2013-05-20 15:47:00,69.3,51.4,29.77,North,0,0.0,0.0,53,0.00,,,0.00,WUHU216HW,2013-05-20 22:47:00,
2013-05-20 15:52:00,68.8,51.0,29.77,North,0,0.0,0.0,53,0.00,,,0.00,WUHU216HW,2013-05-20 22:52:00,
2013-05-20 15:57:00,68.9,52.0,29.77,North,0,0.0,0.0,55,0.00,,,0.00,WUHU216HW,2013-05-20 22:57:00,
2013-05-20 16:02:00,69.1,51.8,29.77,North,0,0.0,0.0,54,0.00,,,0.00,WUHU216HW,2013-05-20 23:02:00,
2013-05-20 16:07:00,68.9,51.6,29.76,North,0,0.0,0.0,54,0.00,,,0.00,WUHU216HW,2013-05-20 23:07:00,
2013-05-20 16:12:00,68.6,51.2,29.76,North,0,0.0,0.0,54,0.00,,,0.00,WUHU216HW,2013-05-20 23:12:00,
2013-05-20 16:17:00,68.4,51.6,29.76,North,0,0.0,0.0,55,0.00,,,0.00,WUHU216HW,2013-05-20 23:17:00,
2013-05-20 16:22:00,68.6,51.8,29.75,North,0,0.0,0.0,55,0.00,,,0.00,WUHU216HW,2013-05-20 23:22:00,
2013-05-20 16:27:00,68.4,50.6,29.76,North,0,0.0,0.0,53,0.00,,,0.00,WUHU216HW,2013-05-20 23:27:00,
2013-05-20 16:32:00,68.4,51.6,29.75,North,0,0.0,0.0,55,0.00,,,0.00,WUHU216HW,2013-05-20 23:32:00,
2013-05-20 16:37:00,68.6,51.2,29.75,North,0,0.0,0.0,54,0.00,,,0.00,WUHU216HW,2013-05-20 23:37:00,
2013-05-20 16:42:00,68.2,50.4,29.75,North,0,0.0,0.0,53,0.00,,,0.00,WUHU216HW,2013-05-20 23:42:00,
2013-05-20 16:47:00,67.9,50.0,29.74,North,0,0.0,0.0,53,0.00,,,0.00,WUHU216HW,2013-05-20 23:47:00,
2013-05-20 16:52:00,67.7,50.4,29.74,North,0,0.0,0.0,54,0.00,,,0.00,WUHU216HW,2013-05-20 23:52:00,
2013-05-20 16:57:00,67.9,50.6,29.74,North,0,0.0,0.0,54,0.00,,,0.00,WUHU216HW,2013-05-20 23:57:00,
2013-05-20 17:02:00,68.0,50.2,29.74,North,0,0.0,0.0,53,0.00,,,0.00,WUHU216HW,2013-05-21 00:02:00,
2013-05-20 17:07:00,68.0,50.8,29.73,North,0,0.0,0.0,54,0.00,,,0.00,WUHU216HW,2013-05-21 00:07:00,
2013-05-20 17:12:00,68.2,50.4,29.73,North,0,0.0,0.0,53,0.00,,,0.00,WUHU216HW,2013-05-21 00:12:00,
2013-05-20 17:17:00,68.2,50.9,29.73,North,0,0.0,0.0,54,0.00,,,0.00,WUHU216HW,2013-05-21 00:17:00,
2013-05-20 17:22:00,68.2,50.9,29.73,North,0,0.0,0.0,54,0.00,,,0.00,WUHU216HW,2013-05-21 00:22:00,
2013-05-20 17:27:00,68.0,51.2,29.72,North,0,0.0,0.0,55,0.00,,,0.00,WUHU216HW,2013-05-21 00:27:00,
2013-05-20 17:32:00,67.9,52.0,29.72,North,0,0.0,0.0,57,0.00,,,0.00,WUHU216HW,2013-05-21 00:32:00,
2013-05-20 17:38:00,67.0,51.7,29.72,North,0,0.0,0.0,58,0.00,,,0.00,WUHU216HW,2013-05-21 00:38:00,
2013-05-20 17:43:00,66.1,51.8,29.72,North,0,0.0,0.0,60,0.00,,,0.00,WUHU216HW,2013-05-21 00:43:00,
2013-05-20 17:48:00,65.3,51.6,29.72,North,0,0.0,0.0,61,0.00,,,0.00,WUHU216HW,2013-05-21 00:48:00,
2013-05-20 17:53:00,64.6,51.3,29.72,North,0,0.0,0.0,62,0.00,,,0.00,WUHU216HW,2013-05-21 00:53:00,
2013-05-20 17:58:00,64.4,51.1,29.72,North,0,0.0,0.0,62,0.00,,,0.00,WUHU216HW,2013-05-21 00:58:00,
2013-05-20 18:03:00,64.1,50.8,29.72,North,0,0.0,0.0,62,0.00,,,0.00,WUHU216HW,2013-05-21 01:03:00,
2013-05-20 18:08:00,63.5,50.2,29.72,North,0,0.0,0.0,62,0.00,,,0.00,WUHU216HW,2013-05-21 01:08:00,
2013-05-20 18:13:00,62.8,50.1,29.71,North,0,0.0,0.0,63,0.00,,,0.00,WUHU216HW,2013-05-21 01:13:00,
2013-05-20 18:18:00,62.3,50.0,29.71,North,0,0.0,0.0,64,0.00,,,0.00,WUHU216HW,2013-05-21 01:18:00,
2013-05-20 18:23:00,61.9,50.1,29.71,North,0,0.0,0.0,65,0.00,,,0.00,WUHU216HW,2013-05-21 01:23:00,
2013-05-20 18:28:00,61.9,49.6,29.71,North,0,0.0,0.0,64,0.00,,,0.00,WUHU216HW,2013-05-21 01:28:00,
2013-05-20 18:33:00,61.6,49.7,29.71,North,0,0.0,0.0,65,0.00,,,0.00,WUHU216HW,2013-05-21 01:33:00,
2013-05-20 18:38:00,61.2,49.4,29.71,North,0,0.0,0.0,65,0.00,,,0.00,WUHU216HW,2013-05-21 01:38:00,
2013-05-20 18:43:00,61.0,49.2,29.71,North,0,0.0,0.0,65,0.00,,,0.00,WUHU216HW,2013-05-21 01:43:00,
2013-05-20 18:48:00,60.7,48.9,29.70,North,0,0.0,0.0,65,0.00,,,0.00,WUHU216HW,2013-05-21 01:48:00,
2013-05-20 18:53:00,60.5,48.7,29.70,North,0,0.0,0.0,65,0.00,,,0.00,WUHU216HW,2013-05-21 01:53:00,
2013-05-20 18:58:00,60.1,48.3,29.70,North,0,0.0,0.0,65,0.00,,,0.00,WUHU216HW,2013-05-21 01:58:00,
2013-05-20 19:03:00,60.1,48.3,29.70,North,0,0.0,0.0,65,0.00,,,0.00,WUHU216HW,2013-05-21 02:03:00,
2013-05-20 19:08:00,59.8,48.4,29.70,North,0,0.0,0.0,66,0.00,,,0.00,WUHU216HW,2013-05-21 02:08:00,
2013-05-20 19:13:00,59.8,48.4,29.70,North,0,0.0,0.0,66,0.00,,,0.00,WUHU216HW,2013-05-21 02:13:00,
2013-05-20 19:18:00,59.9,49.0,29.69,North,0,0.0,0.0,67,0.00,,,0.00,WUHU216HW,2013-05-21 02:18:00,
2013-05-20 19:23:00,60.1,49.1,29.69,North,0,0.0,0.0,67,0.00,,,0.00,WUHU216HW,2013-05-21 02:23:00,
2013-05-20 19:28:00,60.1,49.6,29.69,North,0,0.0,0.0,68,0.00,,,0.00,WUHU216HW,2013-05-21 02:28:00,
2013-05-20 19:33:00,59.9,49.4,29.69,North,0,0.0,0.0,68,0.00,,,0.00,WUHU216HW,2013-05-21 02:33:00,
2013-05-20 19:38:00,59.6,49.1,29.69,North,0,0.0,0.0,68,0.00,,,0.00,WUHU216HW,2013-05-21 02:38:00,
2013-05-20 19:43:00,59.4,49.2,29.69,North,0,0.0,0.0,69,0.00,,,0.00,WUHU216HW,2013-05-21 02:43:00,
2013-05-20 19:48:00,59.0,48.9,29.69,North,0,0.0,0.0,69,0.00,,,0.00,WUHU216HW,2013-05-21 02:48:00,
2013-05-20 19:53:00,58.5,48.3,29.69,North,0,0.0,0.0,69,0.00,,,0.00,WUHU216HW,2013-05-21 02:53:00,
2013-05-20 19:58:00,58.0,48.2,29.69,North,0,0.0,0.0,70,0.00,,,0.00,WUHU216HW,2013-05-21 02:58:00,
2013-05-20 20:03:00,57.6,48.2,29.69,North,0,0.0,0.0,71,0.00,,,0.00,WUHU216HW,2013-05-21 03:03:00,
2013-05-20 20:08:00,57.4,48.4,29.69,North,0,0.0,0.0,72,0.00,,,0.00,WUHU216HW,2013-05-21 03:08:00,
2013-05-20 20:13:00,57.2,48.2,29.69,North,0,0.0,0.0,72,0.00,,,0.00,WUHU216HW,2013-05-21 03:13:00,
2013-05-20 20:18:00,57.2,48.2,29.69,North,0,0.0,0.0,72,0.00,,,0.00,WUHU216HW,2013-05-21 03:18:00,
2013-05-20 20:23:00,56.9,47.9,29.69,North,0,0.0,0.0,72,0.00,,,0.00,WUHU216HW,2013-05-21 03:23:00,
2013-05-20 20:28:00,56.5,47.6,29.68,North,0,0.0,0.0,72,0.00,,,0.00,WUHU216HW,2013-05-21 03:28:00,
2013-05-20 20:33:00,56.5,48.0,29.69,North,0,0.0,0.0,73,0.00,,,0.00,WUHU216HW,2013-05-21 03:33:00,
2013-05-20 20:38:00,56.2,47.6,29.68,North,0,0.0,0.0,73,0.00,,,0.00,WUHU216HW,2013-05-21 03:38:00,
2013-05-20 20:43:00,56.0,47.4,29.68,North,0,0.0,0.0,73,0.00,,,0.00,WUHU216HW,2013-05-21 03:43:00,
2013-05-20 20:48:00,55.6,47.4,29.68,North,0,0.0,0.0,74,0.00,,,0.00,WUHU216HW,2013-05-21 03:48:00,
2013-05-20 20:53:00,55.4,47.3,29.68,North,0,0.0,0.0,74,0.00,,,0.00,WUHU216HW,2013-05-21 03:53:00,
2013-05-20 20:58:00,55.4,47.3,29.68,North,0,0.0,0.0,74,0.00,,,0.00,WUHU216HW,2013-05-21 03:58:00,
2013-05-20 21:01:00,55.4,47.3,29.68,North,0,0.0,0.0,74,0.00,,,0.00,WUHU216HW,2013-05-21 04:01:00,
2013-05-20 21:06:00,55.3,47.4,29.68,North,0,0.0,0.0,75,0.00,,,0.00,WUHU216HW,2013-05-21 04:06:00,
2013-05-20 21:11:00,55.1,47.3,29.67,North,0,0.0,0.0,75,0.00,,,0.00,WUHU216HW,2013-05-21 04:11:00,
2013-05-20 21:16:00,54.9,47.1,29.67,North,0,0.0,0.0,75,0.00,,,0.00,WUHU216HW,2013-05-21 04:16:00,
2013-05-20 21:21:00,54.9,47.4,29.67,North,0,0.0,0.0,76,0.00,,,0.00,WUHU216HW,2013-05-21 04:21:00,
2013-05-20 21:26:00,54.5,47.1,29.67,North,0,0.0,0.0,76,0.00,,,0.00,WUHU216HW,2013-05-21 04:26:00,
2013-05-20 21:31:00,54.4,46.6,29.67,North,0,0.0,0.0,75,0.00,,,0.00,WUHU216HW,2013-05-21 04:31:00,
2013-05-20 21:36:00,54.2,46.8,29.67,North,0,0.0,0.0,76,0.00,,,0.00,WUHU216HW,2013-05-21 04:36:00,
2013-05-20 21:41:00,54.0,46.6,29.67,North,0,0.0,0.0,76,0.00,,,0.00,WUHU216HW,2013-05-21 04:41:00,
2013-05-20 21:46:00,53.8,46.8,29.67,North,0,0.0,0.0,77,0.00,,,0.00,WUHU216HW,2013-05-21 04:46:00,
2013-05-20 21:51:00,53.6,46.3,29.67,North,0,0.0,0.0,76,0.00,,,0.00,WUHU216HW,2013-05-21 04:51:00,
2013-05-20 21:56:00,53.6,46.6,29.67,North,0,0.0,0.0,77,0.00,,,0.00,WUHU216HW,2013-05-21 04:56:00,
2013-05-20 22:01:00,53.6,46.6,29.66,North,0,0.0,0.0,77,0.00,,,0.00,WUHU216HW,2013-05-21 05:01:00,
2013-05-20 22:06:00,53.6,46.6,29.66,North,0,0.0,0.0,77,0.00,,,0.00,WUHU216HW,2013-05-21 05:06:00,
2013-05-20 22:11:00,53.6,46.3,29.66,North,0,0.0,0.0,76,0.00,,,0.00,WUHU216HW,2013-05-21 05:11:00,
2013-05-20 22:16:00,53.6,46.3,29.66,North,0,0.0,0.0,76,0.00,,,0.00,WUHU216HW,2013-05-21 05:16:00,
2013-05-20 22:21:00,53.6,46.3,29.65,North,0,0.0,0.0,76,0.00,,,0.00,WUHU216HW,2013-05-21 05:21:00,
2013-05-20 22:26:00,53.5,46.1,29.65,North,0,0.0,0.0,76,0.00,,,0.00,WUHU216HW,2013-05-21 05:26:00,
2013-05-20 22:31:00,53.5,46.1,29.65,North,0,0.0,0.0,76,0.00,,,0.00,WUHU216HW,2013-05-21 05:31:00,
2013-05-20 22:36:00,53.5,46.1,29.65,North,0,0.0,0.0,76,0.00,,,0.00,WUHU216HW,2013-05-21 05:36:00,
2013-05-20 22:41:00,53.3,45.9,29.65,North,0,0.0,0.0,76,0.00,,,0.00,WUHU216HW,2013-05-21 05:41:00,
2013-05-20 22:46:00,53.3,45.9,29.65,North,0,0.0,0.0,76,0.00,,,0.00,WUHU216HW,2013-05-21 05:46:00,
2013-05-20 22:51:00,53.3,45.9,29.65,North,0,0.0,0.0,76,0.00,,,0.00,WUHU216HW,2013-05-21 05:51:00,
2013-05-20 22:56:00,53.3,46.3,29.64,North,0,0.0,0.0,77,0.00,,,0.00,WUHU216HW,2013-05-21 05:56:00,
2013-05-20 23:01:00,53.1,46.1,29.64,North,0,0.0,0.0,77,0.00,,,0.00,WUHU216HW,2013-05-21 06:01:00,
2013-05-20 23:06:00,52.9,45.9,29.64,North,0,0.0,0.0,77,0.00,,,0.00,WUHU216HW,2013-05-21 06:06:00,
2013-05-20 23:11:00,52.9,45.9,29.63,North,0,0.0,0.0,77,0.00,,,0.00,WUHU216HW,2013-05-21 06:11:00,
2013-05-20 23:16:00,52.7,45.7,29.64,North,0,0.0,0.0,77,0.00,,,0.00,WUHU216HW,2013-05-21 06:16:00,
2013-05-20 23:21:00,52.6,45.9,29.63,North,0,0.0,0.0,78,0.00,,,0.00,WUHU216HW,2013-05-21 06:21:00,
2013-05-20 23:26:00,52.6,45.9,29.64,North,0,0.0,0.0,78,0.00,,,0.00,WUHU216HW,2013-05-21 06:26:00,
2013-05-20 23:31:00,52.4,45.7,29.64,North,0,0.0,0.0,78,0.00,,,0.00,WUHU216HW,2013-05-21 06:31:00,
2013-05-20 23:36:00,52.4,45.4,29.64,North,0,0.0,0.0,77,0.00,,,0.00,WUHU216HW,2013-05-21 06:36:00,
2013-05-20 23:41:00,52.4,45.4,29.63,North,0,0.0,0.0,77,0.00,,,0.00,WUHU216HW,2013-05-21 06:41:00,
2013-05-20 23:46:00,52.4,45.7,29.63,North,0,0.0,0.0,78,0.00,,,0.00,WUHU216HW,2013-05-21 06:46:00,
2013-05-20 23:51:00,52.2,45.5,29.62,North,0,0.0,0.0,78,0.00,,,0.00,WUHU216HW,2013-05-21 06:51:00,
2013-05-20 23:56:00,52.2,45.5,29.63,North,0,0.0,0.0,78,0.00,,,0.00,WUHU216HW,2013-05-21 06:56:00,